createdAt,value
2023-04-08T00:28:04.658Z,97.04
2023-04-08T00:58:04.894Z,96.64
2023-04-08T01:58:02.152Z,97.52
2023-04-08T02:28:04.534Z,97.93
2023-04-08T02:58:02.714Z,97.79
2023-04-08T03:28:04.616Z,98.37
2023-04-08T03:58:04.429Z,98.85
2023-04-08T04:28:02.886Z,98.78
2023-04-08T04:58:02.144Z,99.18
2023-04-08T05:28:02.378Z,100.0
2023-04-08T05:58:02.234Z,100.0
2023-04-08T06:28:02.462Z,100.0
2023-04-08T06:58:02.321Z,100.0
2023-04-08T07:28:02.568Z,97.51
2023-04-08T07:58:02.428Z,89.07
2023-04-08T08:28:02.340Z,82.46
2023-04-08T08:58:02.277Z,74.59
2023-04-08T09:28:03.961Z,72.86
2023-04-08T09:58:02.140Z,62.47
2023-04-08T10:28:02.193Z,54.67
2023-04-08T10:58:02.087Z,51.26
2023-04-08T11:28:02.060Z,52.13
2023-04-08T11:58:02.198Z,49.16
2023-04-08T12:28:01.773Z,48.46
2023-04-08T12:58:02.299Z,43.0
2023-04-08T13:28:01.596Z,43.96
2023-04-08T13:58:03.529Z,40.38
2023-04-08T14:28:01.517Z,43.13
2023-04-08T14:58:01.585Z,45.88
2023-04-08T15:28:03.619Z,47.72
2023-04-08T15:58:01.627Z,47.42
2023-04-08T16:28:03.398Z,48.86
2023-04-08T16:58:01.333Z,48.83
2023-04-08T17:28:01.217Z,55.18
2023-04-08T17:58:01.496Z,58.04
2023-04-08T18:28:01.072Z,62.31
2023-04-08T18:58:04.700Z,63.43
2023-04-08T19:28:01.062Z,65.83
2023-04-08T19:58:01.074Z,63.24
2023-04-08T20:28:03.114Z,62.19
2023-04-08T20:58:03.312Z,65.84
2023-04-08T21:28:00.672Z,67.36
2023-04-08T21:58:01.248Z,68.5
2023-04-08T22:28:00.871Z,71.66
2023-04-08T22:58:00.717Z,75.87
2023-04-08T23:28:01.258Z,76.73
2023-04-08T23:58:02.685Z,78.43
